sensor_id;sensor_type;location;lat;lon;timestamp;pressure;altitude;pressure_sealevel;temperature;humidity
75991;BME280;64673;52.276;10.560;2023-10-13T00:01:23;100428.88;;;14.67;100.00
75991;BME280;64673;52.276;10.560;2023-10-13T00:03:50;100433.91;;;14.73;100.00
75991;BME280;64673;52.276;10.560;2023-10-13T00:06:19;100436.84;;;14.77;100.00
75991;BME280;64673;52.276;10.560;2023-10-13T00:08:45;100435.16;;;14.81;100.00
75991;BME280;64673;52.276;10.560;2023-10-13T00:11:14;100428.78;;;14.85;100.00
75991;BME280;64673;52.276;10.560;2023-10-13T00:13:40;100437.75;;;14.86;100.00
75991;BME280;64673;52.276;10.560;2023-10-13T00:16:07;100429.31;;;14.87;100.00
75991;BME280;64673;52.276;10.560;2023-10-13T00:18:35;100424.91;;;14.91;100.00
75991;BME280;64673;52.276;10.560;2023-10-13T00:21:07;100424.91;;;14.91;100.00
75991;BME280;64673;52.276;10.560;2023-10-13T00:23:41;100415.72;;;14.87;100.00
75991;BME280;64673;52.276;10.560;2023-10-13T00:26:18;100426.00;;;14.90;100.00
75991;BME280;64673;52.276;10.560;2023-10-13T00:28:44;100423.47;;;14.94;100.00
75991;BME280;64673;52.276;10.560;2023-10-13T00:31:12;100425.00;;;15.00;100.00
75991;BME280;64673;52.276;10.560;2023-10-13T00:33:40;100413.72;;;14.93;100.00
75991;BME280;64673;52.276;10.560;2023-10-13T00:36:07;100421.75;;;14.98;100.00
75991;BME280;64673;52.276;10.560;2023-10-13T00:38:34;100414.63;;;14.88;100.00
75991;BME280;64673;52.276;10.560;2023-10-13T00:41:00;100411.81;;;14.93;100.00
75991;BME280;64673;52.276;10.560;2023-10-13T00:43:48;100409.78;;;14.99;100.00
75991;BME280;64673;52.276;10.560;2023-10-13T00:46:40;100399.75;;;14.99;100.00
75991;BME280;64673;52.276;10.560;2023-10-13T00:49:09;100407.78;;;15.05;100.00
75991;BME280;64673;52.276;10.560;2023-10-13T00:51:36;100403.56;;;14.98;100.00
75991;BME280;64673;52.276;10.560;2023-10-13T00:54:06;100399.16;;;15.02;100.00
75991;BME280;64673;52.276;10.560;2023-10-13T00:56:45;100411.00;;;15.07;100.00
75991;BME280;64673;52.276;10.560;2023-10-13T00:59:23;100409.00;;;15.12;100.00
75991;BME280;64673;52.276;10.560;2023-10-13T01:01:51;100402.16;;;15.15;100.00
75991;BME280;64673;52.276;10.560;2023-10-13T01:04:20;100399.75;;;15.13;100.00
75991;BME280;64673;52.276;10.560;2023-10-13T01:06:48;100399.31;;;15.06;100.00
75991;BME280;64673;52.276;10.560;2023-10-13T01:09:14;100396.91;;;15.18;100.00
75991;BME280;64673;52.276;10.560;2023-10-13T01:11:49;100373.97;;;15.11;100.00
75991;BME280;64673;52.276;10.560;2023-10-13T01:14:18;100379.13;;;15.12;100.00
75991;BME280;64673;52.276;10.560;2023-10-13T01:16:45;100379.00;;;15.17;100.00
75991;BME280;64673;52.276;10.560;2023-10-13T01:19:16;100381.31;;;15.10;100.00
75991;BME280;64673;52.276;10.560;2023-10-13T01:22:00;100388.25;;;15.16;100.00
75991;BME280;64673;52.276;10.560;2023-10-13T01:24:30;100385.53;;;15.16;100.00
75991;BME280;64673;52.276;10.560;2023-10-13T01:27:03;100392.28;;;15.19;100.00
75991;BME280;64673;52.276;10.560;2023-10-13T01:29:43;100387.66;;;15.19;100.00
75991;BME280;64673;52.276;10.560;2023-10-13T01:32:14;100384.41;;;15.17;100.00
75991;BME280;64673;52.276;10.560;2023-10-13T01:34:40;100387.13;;;15.17;100.00
75991;BME280;64673;52.276;10.560;2023-10-13T01:37:11;100392.47;;;15.22;100.00
75991;BME280;64673;52.276;10.560;2023-10-13T01:39:36;100384.19;;;15.27;100.00
75991;BME280;64673;52.276;10.560;2023-10-13T01:42:02;100387.44;;;15.29;100.00
75991;BME280;64673;52.276;10.560;2023-10-13T01:44:27;100369.94;;;15.22;100.00
75991;BME280;64673;52.276;10.560;2023-10-13T01:46:59;100378.38;;;15.34;100.00
75991;BME280;64673;52.276;10.560;2023-10-13T01:49:27;100369.91;;;15.35;100.00
75991;BME280;64673;52.276;10.560;2023-10-13T01:51:53;100365.47;;;15.39;100.00
75991;BME280;64673;52.276;10.560;2023-10-13T01:54:19;100361.63;;;15.41;100.00
75991;BME280;64673;52.276;10.560;2023-10-13T01:56:46;100363.25;;;15.42;100.00
75991;BME280;64673;52.276;10.560;2023-10-13T01:59:14;100368.88;;;15.45;100.00
75991;BME280;64673;52.276;10.560;2023-10-13T02:01:40;100363.44;;;15.45;100.00
75991;BME280;64673;52.276;10.560;2023-10-13T02:04:07;100355.66;;;15.52;100.00
75991;BME280;64673;52.276;10.560;2023-10-13T02:06:34;100356.47;;;15.53;100.00
75991;BME280;64673;52.276;10.560;2023-10-13T02:09:08;100352.75;;;15.49;100.00
75991;BME280;64673;52.276;10.560;2023-10-13T02:11:44;100343.13;;;15.43;100.00
75991;BME280;64673;52.276;10.560;2023-10-13T02:14:13;100351.34;;;15.51;100.00
75991;BME280;64673;52.276;10.560;2023-10-13T02:16:42;100353.75;;;15.53;100.00
75991;BME280;64673;52.276;10.560;2023-10-13T02:19:07;100360.00;;;15.53;100.00
75991;BME280;64673;52.276;10.560;2023-10-13T02:21:34;100355.66;;;15.52;100.00
75991;BME280;64673;52.276;10.560;2023-10-13T02:24:07;100356.47;;;15.53;100.00
75991;BME280;64673;52.276;10.560;2023-10-13T02:26:39;100348.13;;;15.49;100.00
75991;BME280;64673;52.276;10.560;2023-10-13T02:29:05;100336.63;;;15.52;100.00
75991;BME280;64673;52.276;10.560;2023-10-13T02:31:39;100337.03;;;15.59;100.00
75991;BME280;64673;52.276;10.560;2023-10-13T02:34:05;100325.34;;;15.59;100.00
75991;BME280;64673;52.276;10.560;2023-10-13T02:36:36;100335.84;;;15.52;100.00
75991;BME280;64673;52.276;10.560;2023-10-13T02:39:04;100321.13;;;15.53;100.00
75991;BME280;64673;52.276;10.560;2023-10-13T02:41:36;100325.19;;;15.55;100.00
75991;BME280;64673;52.276;10.560;2023-10-13T02:44:05;100326.56;;;15.53;100.00
75991;BME280;64673;52.276;10.560;2023-10-13T02:46:32;100321.94;;;15.53;100.00
75991;BME280;64673;52.276;10.560;2023-10-13T02:49:01;100311.50;;;15.47;100.00
75991;BME280;64673;52.276;10.560;2023-10-13T02:51:35;100317.91;;;15.51;100.00
75991;BME280;64673;52.276;10.560;2023-10-13T02:54:07;100318.06;;;15.46;100.00
75991;BME280;64673;52.276;10.560;2023-10-13T02:56:40;100321.13;;;15.53;100.00
75991;BME280;64673;52.276;10.560;2023-10-13T02:59:14;100305.84;;;15.57;100.00
75991;BME280;64673;52.276;10.560;2023-10-13T03:01:40;100311.84;;;15.67;100.00
75991;BME280;64673;52.276;10.560;2023-10-13T03:04:05;100302.91;;;15.67;100.00
75991;BME280;64673;52.276;10.560;2023-10-13T03:06:38;100289.56;;;15.57;100.00
75991;BME280;64673;52.276;10.560;2023-10-13T03:09:09;100305.09;;;15.65;100.00
75991;BME280;64673;52.276;10.560;2023-10-13T03:11:44;100307.44;;;15.58;100.00
75991;BME280;64673;52.276;10.560;2023-10-13T03:14:14;100307.53;;;15.53;100.00
75991;BME280;64673;52.276;10.560;2023-10-13T03:16:55;100301.00;;;15.54;100.00
75991;BME280;64673;52.276;10.560;2023-10-13T03:19:27;100286.34;;;15.55;100.00
75991;BME280;64673;52.276;10.560;2023-10-13T03:22:01;100285.69;;;15.58;100.00
75991;BME280;64673;52.276;10.560;2023-10-13T03:24:37;100285.91;;;15.48;100.00
75991;BME280;64673;52.276;10.560;2023-10-13T03:27:11;100285.22;;;15.56;100.00
75991;BME280;64673;52.276;10.560;2023-10-13T03:29:56;100287.81;;;15.61;100.00
75991;BME280;64673;52.276;10.560;2023-10-13T03:32:25;100288.31;;;15.63;100.00
75991;BME280;64673;52.276;10.560;2023-10-13T03:34:51;100279.53;;;15.66;100.00
75991;BME280;64673;52.276;10.560;2023-10-13T03:37:18;100269.94;;;15.68;100.00
75991;BME280;64673;52.276;10.560;2023-10-13T03:40:01;100265.50;;;15.72;100.00
75991;BME280;64673;52.276;10.560;2023-10-13T03:42:31;100265.38;;;15.78;100.00
75991;BME280;64673;52.276;10.560;2023-10-13T03:44:57;100250.03;;;15.82;100.00
75991;BME280;64673;52.276;10.560;2023-10-13T03:47:22;100241.38;;;15.80;100.00
75991;BME280;64673;52.276;10.560;2023-10-13T03:49:57;100248.28;;;15.86;100.00
75991;BME280;64673;52.276;10.560;2023-10-13T03:52:41;100234.00;;;15.80;100.00
75991;BME280;64673;52.276;10.560;2023-10-13T03:55:07;100232.78;;;15.86;100.00
75991;BME280;64673;52.276;10.560;2023-10-13T03:57:33;100233.75;;;15.90;100.00
75991;BME280;64673;52.276;10.560;2023-10-13T03:59:59;100236.00;;;15.88;100.00
75991;BME280;64673;52.276;10.560;2023-10-13T04:02:33;100242.13;;;16.02;100.00
75991;BME280;64673;52.276;10.560;2023-10-13T04:04:58;100243.44;;;16.05;100.00
75991;BME280;64673;52.276;10.560;2023-10-13T04:07:32;100229.50;;;16.06;100.00
75991;BME280;64673;52.276;10.560;2023-10-13T04:09:57;100230.97;;;16.13;100.00
75991;BME280;64673;52.276;10.560;2023-10-13T04:12:55;100224.56;;;16.08;100.00
75991;BME280;64673;52.276;10.560;2023-10-13T04:15:55;100229.72;;;16.19;100.00
75991;BME280;64673;52.276;10.560;2023-10-13T04:18:39;100228.91;;;16.09;100.00
75991;BME280;64673;52.276;10.560;2023-10-13T04:21:23;100224.72;;;16.12;100.00
75991;BME280;64673;52.276;10.560;2023-10-13T04:24:21;100223.91;;;16.11;100.00
75991;BME280;64673;52.276;10.560;2023-10-13T04:27:09;100221.53;;;16.10;100.00
75991;BME280;64673;52.276;10.560;2023-10-13T04:29:38;100224.91;;;16.16;100.00
75991;BME280;64673;52.276;10.560;2023-10-13T04:32:14;100219.59;;;16.10;100.00
75991;BME280;64673;52.276;10.560;2023-10-13T04:34:41;100220.09;;;16.13;100.00
75991;BME280;64673;52.276;10.560;2023-10-13T04:37:11;100212.22;;;16.11;100.00
75991;BME280;64673;52.276;10.560;2023-10-13T04:39:56;100202.97;;;16.12;100.00
75991;BME280;64673;52.276;10.560;2023-10-13T04:42:37;100192.06;;;16.03;100.00
75991;BME280;64673;52.276;10.560;2023-10-13T04:45:17;100195.25;;;16.05;100.00
75991;BME280;64673;52.276;10.560;2023-10-13T04:47:55;100189.03;;;16.14;100.00
75991;BME280;64673;52.276;10.560;2023-10-13T04:50:45;100192.88;;;16.13;100.00
75991;BME280;64673;52.276;10.560;2023-10-13T04:53:15;100183.59;;;16.14;100.00
75991;BME280;64673;52.276;10.560;2023-10-13T04:56:00;100173.34;;;16.10;100.00
75991;BME280;64673;52.276;10.560;2023-10-13T04:58:32;100165.84;;;16.07;100.00
75991;BME280;64673;52.276;10.560;2023-10-13T05:01:03;100169.66;;;16.06;100.00
75991;BME280;64673;52.276;10.560;2023-10-13T05:03:49;100177.22;;;16.09;100.00
75991;BME280;64673;52.276;10.560;2023-10-13T05:06:20;100178.78;;;16.10;100.00
75991;BME280;64673;52.276;10.560;2023-10-13T05:09:04;100165.66;;;16.13;100.00
75991;BME280;64673;52.276;10.560;2023-10-13T05:11:48;100172.28;;;16.20;99.92
75991;BME280;64673;52.276;10.560;2023-10-13T05:14:31;100168.56;;;16.16;100.00
75991;BME280;64673;52.276;10.560;2023-10-13T05:17:15;100170.97;;;16.18;100.00
75991;BME280;64673;52.276;10.560;2023-10-13T05:19:59;100173.84;;;16.21;99.60
75991;BME280;64673;52.276;10.560;2023-10-13T05:22:43;100172.59;;;16.27;100.00
75991;BME280;64673;52.276;10.560;2023-10-13T05:25:27;100161.09;;;16.30;100.00
75991;BME280;64673;52.276;10.560;2023-10-13T05:28:11;100161.41;;;16.37;99.83
75991;BME280;64673;52.276;10.560;2023-10-13T05:30:59;100153.44;;;16.41;99.55
75991;BME280;64673;52.276;10.560;2023-10-13T05:33:43;100143.97;;;16.38;99.90
75991;BME280;64673;52.276;10.560;2023-10-13T05:36:27;100157.09;;;16.45;100.00
75991;BME280;64673;52.276;10.560;2023-10-13T05:39:11;100144.97;;;16.51;99.03
75991;BME280;64673;52.276;10.560;2023-10-13T05:41:55;100138.84;;;16.54;98.70
75991;BME280;64673;52.276;10.560;2023-10-13T05:44:39;100149.28;;;16.52;99.70
75991;BME280;64673;52.276;10.560;2023-10-13T05:47:21;100149.59;;;16.51;99.02
75991;BME280;64673;52.276;10.560;2023-10-13T05:50:12;100144.47;;;16.49;99.01
75991;BME280;64673;52.276;10.560;2023-10-13T05:52:53;100145.09;;;16.55;99.07
75991;BME280;64673;52.276;10.560;2023-10-13T05:55:30;100142.38;;;16.55;99.40
75991;BME280;64673;52.276;10.560;2023-10-13T05:58:15;100139.81;;;16.58;99.36
75991;BME280;64673;52.276;10.560;2023-10-13T06:00:59;100143.34;;;16.59;99.20
75991;BME280;64673;52.276;10.560;2023-10-13T06:03:43;100140.03;;;16.62;99.16
75991;BME280;64673;52.276;10.560;2023-10-13T06:06:27;100136.34;;;16.66;99.03
75991;BME280;64673;52.276;10.560;2023-10-13T06:09:11;100127.69;;;16.64;98.81
75991;BME280;64673;52.276;10.560;2023-10-13T06:11:55;100131.19;;;16.65;99.42
75991;BME280;64673;52.276;10.560;2023-10-13T06:14:40;100137.13;;;16.67;99.07
75991;BME280;64673;52.276;10.560;2023-10-13T06:17:24;100141.94;;;16.70;99.31
75991;BME280;64673;52.276;10.560;2023-10-13T06:20:08;100136.19;;;16.71;98.59
75991;BME280;64673;52.276;10.560;2023-10-13T06:22:52;100133.28;;;16.76;99.06
75991;BME280;64673;52.276;10.560;2023-10-13T06:25:37;100127.34;;;16.66;98.99
75991;BME280;64673;52.276;10.560;2023-10-13T06:28:21;100140.66;;;16.76;98.76
75991;BME280;64673;52.276;10.560;2023-10-13T06:31:05;100136.66;;;16.73;98.50
75991;BME280;64673;52.276;10.560;2023-10-13T06:33:31;100135.38;;;16.79;98.62
75991;BME280;64673;52.276;10.560;2023-10-13T06:36:02;100136.50;;;16.78;99.09
75991;BME280;64673;52.276;10.560;2023-10-13T06:38:29;100132.47;;;16.84;98.76
75991;BME280;64673;52.276;10.560;2023-10-13T06:41:02;100127.50;;;16.87;98.38
75991;BME280;64673;52.276;10.560;2023-10-13T06:43:39;100128.63;;;16.86;99.12
75991;BME280;64673;52.276;10.560;2023-10-13T06:46:08;100124.16;;;16.90;98.49
75991;BME280;64673;52.276;10.560;2023-10-13T06:48:39;100122.84;;;16.96;98.75
75991;BME280;64673;52.276;10.560;2023-10-13T06:51:05;100123.66;;;16.96;98.19
75991;BME280;64673;52.276;10.560;2023-10-13T06:53:46;100124.16;;;16.90;100.00
75991;BME280;64673;52.276;10.560;2023-10-13T06:56:14;100123.19;;;16.86;99.30
75991;BME280;64673;52.276;10.560;2023-10-13T06:58:44;100120.94;;;16.88;100.00
75991;BME280;64673;52.276;10.560;2023-10-13T07:01:12;100126.56;;;16.91;99.53
75991;BME280;64673;52.276;10.560;2023-10-13T07:03:44;100109.22;;;16.96;98.84
75991;BME280;64673;52.276;10.560;2023-10-13T07:06:17;100109.59;;;16.94;99.94
75991;BME280;64673;52.276;10.560;2023-10-13T07:08:45;100099.47;;;16.95;100.00
75991;BME280;64673;52.276;10.560;2023-10-13T07:11:14;100104.59;;;17.05;100.00
75991;BME280;64673;52.276;10.560;2023-10-13T07:13:44;100101.38;;;17.03;100.00
75991;BME280;64673;52.276;10.560;2023-10-13T07:16:15;100107.13;;;17.10;100.00
75991;BME280;64673;52.276;10.560;2023-10-13T07:18:41;100090.97;;;17.05;100.00
75991;BME280;64673;52.276;10.560;2023-10-13T07:21:18;100099.44;;;17.12;100.00
75991;BME280;64673;52.276;10.560;2023-10-13T07:23:56;100092.69;;;17.18;99.79
75991;BME280;64673;52.276;10.560;2023-10-13T07:26:26;100091.72;;;17.23;100.00
75991;BME280;64673;52.276;10.560;2023-10-13T07:28:53;100087.56;;;17.25;98.91
75991;BME280;64673;52.276;10.560;2023-10-13T07:31:19;100086.75;;;17.25;99.84
75991;BME280;64673;52.276;10.560;2023-10-13T07:33:46;100084.34;;;17.23;100.00
75991;BME280;64673;52.276;10.560;2023-10-13T07:36:12;100085.44;;;17.31;100.00
75991;BME280;64673;52.276;10.560;2023-10-13T07:38:49;100075.16;;;17.36;100.00
75991;BME280;64673;52.276;10.560;2023-10-13T07:41:24;100074.81;;;17.38;100.00
75991;BME280;64673;52.276;10.560;2023-10-13T07:43:55;100073.56;;;17.35;100.00
75991;BME280;64673;52.276;10.560;2023-10-13T07:46:22;100072.25;;;17.41;100.00
75991;BME280;64673;52.276;10.560;2023-10-13T07:48:55;100074.19;;;17.41;100.00
75991;BME280;64673;52.276;10.560;2023-10-13T07:51:25;100072.56;;;17.40;99.95
75991;BME280;64673;52.276;10.560;2023-10-13T07:53:52;100064.06;;;17.41;99.83
75991;BME280;64673;52.276;10.560;2023-10-13T07:56:18;100057.81;;;17.41;100.00
75991;BME280;64673;52.276;10.560;2023-10-13T07:58:44;100056.38;;;17.43;100.00
75991;BME280;64673;52.276;10.560;2023-10-13T08:01:28;100057.03;;;17.40;100.00
75991;BME280;64673;52.276;10.560;2023-10-13T08:03:53;100050.56;;;17.53;100.00
75991;BME280;64673;52.276;10.560;2023-10-13T08:06:36;100045.75;;;17.50;100.00
75991;BME280;64673;52.276;10.560;2023-10-13T08:09:02;100042.69;;;17.52;100.00
75991;BME280;64673;52.276;10.560;2023-10-13T08:11:34;100031.75;;;17.61;100.00
75991;BME280;64673;52.276;10.560;2023-10-13T08:14:02;100023.75;;;17.55;100.00
75991;BME280;64673;52.276;10.560;2023-10-13T08:16:41;100017.84;;;17.53;100.00
75991;BME280;64673;52.276;10.560;2023-10-13T08:19:38;100017.75;;;17.71;100.00
75991;BME280;64673;52.276;10.560;2023-10-13T08:22:15;100010.44;;;17.63;100.00
75991;BME280;64673;52.276;10.560;2023-10-13T08:24:50;100015.72;;;17.59;100.00
75991;BME280;64673;52.276;10.560;2023-10-13T08:27:20;100008.78;;;17.70;100.00
75991;BME280;64673;52.276;10.560;2023-10-13T08:30:13;100013.41;;;17.78;100.00
75991;BME280;64673;52.276;10.560;2023-10-13T08:32:55;100013.84;;;17.80;100.00
75991;BME280;64673;52.276;10.560;2023-10-13T08:35:22;100014.19;;;17.79;100.00
75991;BME280;64673;52.276;10.560;2023-10-13T08:37:48;100005.81;;;17.84;100.00
75991;BME280;64673;52.276;10.560;2023-10-13T08:40:16;99999.69;;;17.87;100.00
75991;BME280;64673;52.276;10.560;2023-10-13T08:43:05;100006.59;;;17.84;100.00
75991;BME280;64673;52.276;10.560;2023-10-13T08:45:31;99991.31;;;17.92;100.00
75991;BME280;64673;52.276;10.560;2023-10-13T08:48:01;99987.13;;;17.95;99.63
75991;BME280;64673;52.276;10.560;2023-10-13T08:50:57;99985.00;;;18.00;99.73
75991;BME280;64673;52.276;10.560;2023-10-13T08:53:29;99992.03;;;18.01;99.69
75991;BME280;64673;52.276;10.560;2023-10-13T08:56:07;99989.44;;;18.05;99.18
75991;BME280;64673;52.276;10.560;2023-10-13T08:58:38;99974.34;;;18.07;99.94
75991;BME280;64673;52.276;10.560;2023-10-13T09:03:57;99972.41;;;18.08;99.27
75991;BME280;64673;52.276;10.560;2023-10-13T09:07:03;100002.09;;;18.09;99.25
75991;BME280;64673;52.276;10.560;2023-10-13T09:09:32;99997.56;;;18.13;98.44
75991;BME280;64673;52.276;10.560;2023-10-13T09:14:40;99981.66;;;18.15;97.79
75991;BME280;64673;52.276;10.560;2023-10-13T09:17:11;99978.00;;;18.32;97.38
75991;BME280;64673;52.276;10.560;2023-10-13T09:19:53;99967.88;;;18.33;97.04
75991;BME280;64673;52.276;10.560;2023-10-13T09:22:22;99970.00;;;18.27;97.58
75991;BME280;64673;52.276;10.560;2023-10-13T09:24:58;99965.34;;;18.27;97.74
75991;BME280;64673;52.276;10.560;2023-10-13T09:27:25;99965.16;;;18.33;98.06
75991;BME280;64673;52.276;10.560;2023-10-13T09:29:59;99962.78;;;18.43;96.60
75991;BME280;64673;52.276;10.560;2023-10-13T09:33:03;99965.53;;;18.43;96.83
75991;BME280;64673;52.276;10.560;2023-10-13T09:35:33;99972.81;;;18.51;96.69
75991;BME280;64673;52.276;10.560;2023-10-13T09:38:02;99971.81;;;18.56;97.32
75991;BME280;64673;52.276;10.560;2023-10-13T09:40:29;99970.03;;;18.60;96.49
75991;BME280;64673;52.276;10.560;2023-10-13T09:42:57;99961.28;;;18.67;96.35
75991;BME280;64673;52.276;10.560;2023-10-13T09:45:28;99960.84;;;18.77;95.42
75991;BME280;64673;52.276;10.560;2023-10-13T09:48:02;99954.50;;;18.97;96.22
75991;BME280;64673;52.276;10.560;2023-10-13T09:50:36;99947.13;;;19.10;94.33
75991;BME280;64673;52.276;10.560;2023-10-13T09:53:04;99947.25;;;19.13;94.89
75991;BME280;64673;52.276;10.560;2023-10-13T09:55:41;99932.91;;;19.16;94.72
75991;BME280;64673;52.276;10.560;2023-10-13T09:58:11;99934.38;;;19.26;93.75
75991;BME280;64673;52.276;10.560;2023-10-13T10:00:48;99937.09;;;19.38;93.57
75991;BME280;64673;52.276;10.560;2023-10-13T10:03:32;99938.25;;;19.49;93.26
75991;BME280;64673;52.276;10.560;2023-10-13T10:06:02;99932.97;;;19.44;94.42
75991;BME280;64673;52.276;10.560;2023-10-13T10:08:42;99935.03;;;19.47;92.75
75991;BME280;64673;52.276;10.560;2023-10-13T10:17:05;99914.34;;;19.86;91.23
75991;BME280;64673;52.276;10.560;2023-10-13T10:19:33;99907.69;;;19.99;91.21
75991;BME280;64673;52.276;10.560;2023-10-13T10:22:04;99910.66;;;20.22;90.85
75991;BME280;64673;52.276;10.560;2023-10-13T10:24:42;99909.06;;;20.49;89.55
75991;BME280;64673;52.276;10.560;2023-10-13T10:27:07;99891.34;;;20.31;89.13
75991;BME280;64673;52.276;10.560;2023-10-13T10:29:33;99894.22;;;20.50;90.17
75991;BME280;64673;52.276;10.560;2023-10-13T10:31:59;99887.03;;;20.45;88.38
75991;BME280;64673;52.276;10.560;2023-10-13T10:34:30;99875.38;;;20.49;88.81
75991;BME280;64673;52.276;10.560;2023-10-13T10:36:57;99856.41;;;20.40;88.78
75991;BME280;64673;52.276;10.560;2023-10-13T10:39:36;99866.72;;;20.46;87.83
75991;BME280;64673;52.276;10.560;2023-10-13T10:42:14;99854.53;;;20.60;88.09
75991;BME280;64673;52.276;10.560;2023-10-13T10:44:49;99845.53;;;20.75;86.25
75991;BME280;64673;52.276;10.560;2023-10-13T10:47:20;99835.19;;;20.84;86.86
75991;BME280;64673;52.276;10.560;2023-10-13T10:50:03;99828.00;;;20.95;85.67
75991;BME280;64673;52.276;10.560;2023-10-13T10:52:48;99838.09;;;20.91;85.59
75991;BME280;64673;52.276;10.560;2023-10-13T10:55:19;99834.91;;;20.89;85.01
75991;BME280;64673;52.276;10.560;2023-10-13T10:57:45;99821.78;;;20.98;86.16
75991;BME280;64673;52.276;10.560;2023-10-13T11:00:20;99815.69;;;20.89;86.11
75991;BME280;64673;52.276;10.560;2023-10-13T11:02:55;99820.47;;;20.92;85.93
75991;BME280;64673;52.276;10.560;2023-10-13T11:05:21;99806.34;;;20.90;84.89
75991;BME280;64673;52.276;10.560;2023-10-13T11:07:47;99810.66;;;20.91;84.28
75991;BME280;64673;52.276;10.560;2023-10-13T11:10:18;99805.34;;;20.98;83.71
75991;BME280;64673;52.276;10.560;2023-10-13T11:13:00;99799.59;;;20.88;82.49
75991;BME280;64673;52.276;10.560;2023-10-13T11:15:42;99804.06;;;21.11;81.51
75991;BME280;64673;52.276;10.560;2023-10-13T11:18:10;99801.63;;;21.06;82.57
75991;BME280;64673;52.276;10.560;2023-10-13T11:20:42;99803.03;;;21.00;82.08
75991;BME280;64673;52.276;10.560;2023-10-13T11:23:13;99814.66;;;20.94;80.93
75991;BME280;64673;52.276;10.560;2023-10-13T11:25:40;99795.25;;;21.02;80.36
75991;BME280;64673;52.276;10.560;2023-10-13T11:28:18;99786.13;;;21.14;79.65
75991;BME280;64673;52.276;10.560;2023-10-13T11:30:45;99776.84;;;21.18;81.08
75991;BME280;64673;52.276;10.560;2023-10-13T11:33:15;99760.56;;;21.10;80.79
75991;BME280;64673;52.276;10.560;2023-10-13T11:35:48;99767.84;;;21.02;80.53
75991;BME280;64673;52.276;10.560;2023-10-13T11:38:14;99759.53;;;20.99;79.87
75991;BME280;64673;52.276;10.560;2023-10-13T11:40:40;99744.47;;;21.08;78.00
75991;BME280;64673;52.276;10.560;2023-10-13T11:43:10;99756.91;;;21.41;77.79
75991;BME280;64673;52.276;10.560;2023-10-13T11:45:40;99755.91;;;21.68;76.92
75991;BME280;64673;52.276;10.560;2023-10-13T11:48:21;99761.00;;;21.89;77.83
75991;BME280;64673;52.276;10.560;2023-10-13T11:51:05;99757.38;;;21.85;73.72
75991;BME280;64673;52.276;10.560;2023-10-13T11:53:34;99763.22;;;21.83;73.65
75991;BME280;64673;52.276;10.560;2023-10-13T11:56:03;99753.25;;;21.72;75.50
75991;BME280;64673;52.276;10.560;2023-10-13T11:58:39;99752.00;;;21.69;73.76
75991;BME280;64673;52.276;10.560;2023-10-13T12:01:05;99743.81;;;21.73;73.55
75991;BME280;64673;52.276;10.560;2023-10-13T12:03:36;99749.47;;;21.80;73.58
75991;BME280;64673;52.276;10.560;2023-10-13T12:06:20;99735.78;;;21.83;74.96
75991;BME280;64673;52.276;10.560;2023-10-13T12:09:04;99733.16;;;22.10;73.97
75991;BME280;64673;52.276;10.560;2023-10-13T12:11:45;99731.50;;;22.05;73.53
75991;BME280;64673;52.276;10.560;2023-10-13T12:14:14;99720.09;;;22.03;74.17
75991;BME280;64673;52.276;10.560;2023-10-13T12:16:47;99717.53;;;21.95;74.67
75991;BME280;64673;52.276;10.560;2023-10-13T12:19:19;99724.63;;;21.96;72.92
75991;BME280;64673;52.276;10.560;2023-10-13T12:21:53;99711.31;;;22.43;72.87
75991;BME280;64673;52.276;10.560;2023-10-13T12:24:27;99695.38;;;22.52;71.87
75991;BME280;64673;52.276;10.560;2023-10-13T12:26:58;99705.63;;;22.55;73.44
75991;BME280;64673;52.276;10.560;2023-10-13T12:29:24;99695.44;;;22.56;70.21
75991;BME280;64673;52.276;10.560;2023-10-13T12:31:57;99697.69;;;22.50;72.22
75991;BME280;64673;52.276;10.560;2023-10-13T12:34:37;99700.16;;;22.59;71.69
75991;BME280;64673;52.276;10.560;2023-10-13T12:37:21;99692.25;;;22.54;72.33
75991;BME280;64673;52.276;10.560;2023-10-13T12:40:05;99696.59;;;22.55;72.06
75991;BME280;64673;52.276;10.560;2023-10-13T12:42:49;99678.53;;;22.57;70.95
75991;BME280;64673;52.276;10.560;2023-10-13T12:45:38;99674.38;;;22.67;70.04
75991;BME280;64673;52.276;10.560;2023-10-13T12:48:22;99693.66;;;22.71;69.97
75991;BME280;64673;52.276;10.560;2023-10-13T12:51:06;99677.91;;;22.94;69.23
75991;BME280;64673;52.276;10.560;2023-10-13T12:53:51;99678.66;;;22.64;68.59
75991;BME280;64673;52.276;10.560;2023-10-13T12:56:17;99676.84;;;22.49;68.88
75991;BME280;64673;52.276;10.560;2023-10-13T12:58:43;99676.22;;;22.59;69.03
75991;BME280;64673;52.276;10.560;2023-10-13T13:01:20;99666.59;;;22.46;71.22
75991;BME280;64673;52.276;10.560;2023-10-13T13:03:47;99670.69;;;22.56;69.69
75991;BME280;64673;52.276;10.560;2023-10-13T13:06:19;99661.53;;;22.48;70.38
75991;BME280;64673;52.276;10.560;2023-10-13T13:08:54;99655.94;;;22.41;70.71
75991;BME280;64673;52.276;10.560;2023-10-13T13:11:20;99662.81;;;22.54;71.85
75991;BME280;64673;52.276;10.560;2023-10-13T13:13:46;99663.53;;;22.25;69.89
75991;BME280;64673;52.276;10.560;2023-10-13T13:16:13;99662.28;;;22.19;69.79
75991;BME280;64673;52.276;10.560;2023-10-13T13:18:38;99667.31;;;22.13;71.02
75991;BME280;64673;52.276;10.560;2023-10-13T13:21:04;99672.72;;;22.10;70.26
75991;BME280;64673;52.276;10.560;2023-10-13T13:23:31;99662.16;;;22.38;69.85